Time;durP1;ratioP1;P1;durP2;ratioP2;P2;SDS_P1;SDS_P2;PMS_P1;PMS_P2;Temp;Humidity;BMP_temperature;BMP_pressure;BME280_temperature;BME280_humidity;BME280_pressure;Samples;Min_cycle;Max_cycle;Signal;HPM_P1;HPM_P2
2022/10/25 00:01:24;;;;;;;4.22;1.33;;;16.10;79.60;;;;;;4786158;29;20051;-52
2022/10/25 00:03:52;;;;;;;3.45;0.90;;;16.10;79.90;;;;;;4785455;29;20057;-48
2022/10/25 00:06:18;;;;;;;4.10;1.13;;;16.10;79.80;;;;;;4788267;29;20564;-52
2022/10/25 00:08:47;;;;;;;3.10;1.27;;;16.10;79.70;;;;;;4786560;29;20081;-51
2022/10/25 00:11:24;;;;;;;7.25;2.10;;;16.10;79.70;;;;;;4786752;29;20409;-52
2022/10/25 00:13:54;;;;;;;6.22;1.17;;;16.20;80.20;;;;;;4785336;29;20047;-50
2022/10/25 00:16:29;;;;;;;3.95;1.75;;;16.20;80.00;;;;;;4786443;29;20050;-50
2022/10/25 00:18:59;;;;;;;3.15;0.98;;;16.20;80.20;;;;;;4785288;29;20066;-48
2022/10/25 00:21:26;;;;;;;6.65;1.38;;;16.20;80.20;;;;;;4786519;29;20055;-49
2022/10/25 00:23:53;;;;;;;11.75;1.20;;;16.20;80.10;;;;;;4785180;29;20485;-48
2022/10/25 00:26:20;;;;;;;6.60;2.50;;;16.20;80.10;;;;;;4786817;29;20108;-52
2022/10/25 00:28:47;;;;;;;4.47;1.48;;;16.20;80.20;;;;;;4788289;29;20051;-52
2022/10/25 00:31:15;;;;;;;5.28;1.50;;;16.30;80.40;;;;;;4786939;29;20512;-52
2022/10/25 00:33:43;;;;;;;8.55;1.23;;;16.30;80.50;;;;;;4786015;29;20051;-50
2022/10/25 00:36:13;;;;;;;6.07;1.45;;;16.30;80.70;;;;;;4788049;29;20474;-48
2022/10/25 00:38:42;;;;;;;7.50;1.48;;;16.30;80.90;;;;;;4787297;30;20055;-51
2022/10/25 00:41:10;;;;;;;7.43;1.42;;;16.30;80.80;;;;;;4787607;29;20513;-52
2022/10/25 00:43:51;;;;;;;3.15;1.13;;;16.40;80.80;;;;;;4787115;29;20051;-48
2022/10/25 00:46:18;;;;;;;3.42;0.93;;;16.40;81.10;;;;;;4787916;29;20055;-48
2022/10/25 00:49:05;;;;;;;5.68;1.20;;;16.40;80.60;;;;;;4787878;29;20043;-52
2022/10/25 00:51:37;;;;;;;5.20;1.80;;;16.50;81.50;;;;;;4786193;29;20119;-52
2022/10/25 00:54:05;;;;;;;5.88;1.35;;;16.50;80.90;;;;;;4787345;29;20053;-52
2022/10/25 00:56:39;;;;;;;3.28;1.27;;;16.50;80.60;;;;;;4787901;29;20055;-48
2022/10/25 00:59:09;;;;;;;5.07;1.23;;;16.60;80.60;;;;;;4787697;29;20043;-49
2022/10/25 01:01:38;;;;;;;4.60;1.10;;;16.60;80.60;;;;;;4787047;29;20062;-52
2022/10/25 01:04:09;;;;;;;3.08;1.17;;;16.60;80.40;;;;;;4787151;29;20095;-52
2022/10/25 01:06:40;;;;;;;5.00;1.35;;;16.60;80.20;;;;;;4794393;29;20532;-48
2022/10/25 01:09:09;;;;;;;3.17;1.05;;;16.60;80.00;;;;;;4798400;29;20051;-52
2022/10/25 01:11:40;;;;;;;5.05;1.40;;;16.70;79.90;;;;;;4785552;29;20056;-51
2022/10/25 01:14:11;;;;;;;6.63;1.27;;;16.60;79.60;;;;;;4787013;29;20085;-47
2022/10/25 01:17:17;;;;;;;6.75;1.20;;;16.60;79.40;;;;;;4793110;29;20147;-52
2022/10/25 01:20:15;;;;;;;3.30;1.10;;;16.70;79.70;;;;;;4782409;29;20054;-48
2022/10/25 01:23:18;;;;;;;3.25;0.85;;;16.70;79.50;;;;;;4782201;29;20425;-52
2022/10/25 01:26:01;;;;;;;5.22;1.10;;;16.60;79.40;;;;;;4787668;29;20054;-52
2022/10/25 01:29:04;;;;;;;3.55;1.00;;;16.60;78.90;;;;;;4785716;29;20059;-47
2022/10/25 01:31:49;;;;;;;3.90;2.20;;;16.50;79.40;;;;;;4786966;30;20054;-50
2022/10/25 01:34:37;;;;;;;2.05;0.85;;;16.50;79.20;;;;;;4786747;29;20105;-51
2022/10/25 01:37:19;;;;;;;3.20;1.00;;;16.50;79.20;;;;;;4786406;29;20046;-52
2022/10/25 01:40:04;;;;;;;4.00;1.45;;;16.40;79.20;;;;;;4786571;29;20104;-52
2022/10/25 01:42:39;;;;;;;3.83;1.33;;;16.40;79.20;;;;;;4786260;29;20059;-52
2022/10/25 01:45:09;;;;;;;4.80;1.30;;;16.40;79.10;;;;;;4787130;29;20119;-49
2022/10/25 01:47:39;;;;;;;6.57;1.70;;;16.40;79.20;;;;;;4785465;29;20047;-51
2022/10/25 01:50:09;;;;;;;8.82;2.70;;;16.40;79.20;;;;;;4785080;30;20058;-51
2022/10/25 01:52:44;;;;;;;5.32;1.20;;;16.40;79.30;;;;;;4785953;29;20055;-48
2022/10/25 01:55:12;;;;;;;2.65;0.90;;;16.40;79.50;;;;;;4785914;29;20413;-49
2022/10/25 01:57:41;;;;;;;4.45;1.42;;;16.40;79.60;;;;;;4786827;29;20055;-50
2022/10/25 02:00:21;;;;;;;3.03;1.27;;;16.40;79.80;;;;;;4786505;30;20043;-52
2022/10/25 02:03:18;;;;;;;4.03;1.45;;;16.40;80.00;;;;;;4786201;29;20143;-52
2022/10/25 02:05:56;;;;;;;4.78;1.25;;;16.40;80.80;;;;;;4787102;29;20061;-50
2022/10/25 02:08:47;;;;;;;3.80;1.30;;;16.50;80.20;;;;;;4786142;30;20046;-52
2022/10/25 02:11:22;;;;;;;5.82;1.13;;;16.50;80.40;;;;;;4786235;29;20126;-52
2022/10/25 02:14:01;;;;;;;3.50;1.30;;;16.50;79.80;;;;;;4786046;29;20055;-51
2022/10/25 02:16:33;;;;;;;4.40;1.30;;;16.50;79.50;;;;;;4785575;29;20047;-52
2022/10/25 02:19:05;;;;;;;6.75;1.23;;;16.50;79.20;;;;;;4786265;29;20536;-51
2022/10/25 02:21:34;;;;;;;7.13;1.02;;;16.50;79.20;;;;;;4785173;29;20050;-49
2022/10/25 02:24:09;;;;;;;3.20;1.15;;;16.50;79.20;;;;;;4784691;29;20057;-51
2022/10/25 02:26:37;;;;;;;3.20;1.65;;;16.50;79.30;;;;;;4785538;30;20047;-51
2022/10/25 02:29:07;;;;;;;3.17;1.50;;;16.40;79.30;;;;;;4786081;29;20051;-52
2022/10/25 02:31:40;;;;;;;3.80;0.80;;;16.40;79.30;;;;;;4786111;29;20055;-48
2022/10/25 02:34:06;;;;;;;3.45;1.00;;;16.50;79.40;;;;;;4785034;29;20046;-50
2022/10/25 02:36:36;;;;;;;3.15;1.08;;;16.40;79.50;;;;;;4785669;29;20051;-48
2022/10/25 02:39:03;;;;;;;3.88;0.95;;;16.50;79.60;;;;;;4785965;30;20063;-47
2022/10/25 02:41:33;;;;;;;4.20;1.20;;;16.50;79.60;;;;;;4785270;30;20057;-47
2022/10/25 02:43:59;;;;;;;4.50;2.30;;;16.50;79.70;;;;;;4783954;29;20134;-51
2022/10/25 02:46:28;;;;;;;3.08;0.93;;;16.50;79.60;;;;;;4786109;29;20513;-49
2022/10/25 02:48:55;;;;;;;3.45;1.17;;;16.50;79.60;;;;;;4785886;29;20122;-52
2022/10/25 02:51:22;;;;;;;4.07;1.20;;;16.50;79.60;;;;;;4785658;29;20502;-48
2022/10/25 02:53:53;;;;;;;2.22;0.93;;;16.60;79.60;;;;;;4784847;29;20055;-52
2022/10/25 02:56:21;;;;;;;3.75;1.40;;;16.60;79.50;;;;;;4785764;30;20047;-51
2022/10/25 02:58:50;;;;;;;3.80;1.17;;;16.60;79.40;;;;;;4784727;29;20100;-52
2022/10/25 03:01:18;;;;;;;4.07;1.25;;;16.60;79.30;;;;;;4785674;29;20047;-52
2022/10/25 03:03:46;;;;;;;3.15;1.20;;;16.60;79.10;;;;;;4783734;29;20051;-52
2022/10/25 03:06:14;;;;;;;3.53;0.98;;;16.60;78.80;;;;;;4786956;29;20050;-48
2022/10/25 03:08:44;;;;;;;6.57;1.20;;;16.60;78.70;;;;;;4785726;29;20049;-51
2022/10/25 03:11:12;;;;;;;6.55;1.38;;;16.60;78.60;;;;;;4785792;29;20054;-52
2022/10/25 03:13:38;;;;;;;4.70;1.17;;;16.60;78.60;;;;;;4784337;29;20050;-52
2022/10/25 03:16:05;;;;;;;2.72;1.23;;;16.60;78.60;;;;;;4799131;29;20055;-52
2022/10/25 03:18:32;;;;;;;5.45;1.17;;;16.50;78.60;;;;;;4789640;29;20061;-51
2022/10/25 03:21:00;;;;;;;3.72;1.10;;;16.60;78.90;;;;;;4796863;29;20058;-50
2022/10/25 03:23:28;;;;;;;4.15;1.10;;;16.50;78.80;;;;;;4785198;29;20055;-50
2022/10/25 03:25:57;;;;;;;2.83;0.80;;;16.60;78.90;;;;;;4785665;29;20079;-51
2022/10/25 03:28:26;;;;;;;4.10;1.80;;;16.60;79.00;;;;;;4785693;29;20055;-52
2022/10/25 03:30:53;;;;;;;3.13;1.40;;;16.60;79.00;;;;;;4784557;29;20048;-55
2022/10/25 03:33:21;;;;;;;4.57;1.25;;;16.60;79.00;;;;;;4785247;29;20043;-56
2022/10/25 03:35:50;;;;;;;6.45;1.70;;;16.60;79.00;;;;;;4789278;29;20058;-50
2022/10/25 03:38:19;;;;;;;9.38;2.55;;;16.60;78.90;;;;;;4788611;29;20051;-51
2022/10/25 03:40:48;;;;;;;2.33;1.20;;;16.60;78.70;;;;;;4787772;29;20211;-51
2022/10/25 03:43:15;;;;;;;3.95;1.30;;;16.60;78.60;;;;;;4788299;29;20420;-52
2022/10/25 03:45:42;;;;;;;4.65;1.73;;;16.60;78.60;;;;;;4789236;29;20047;-49
2022/10/25 03:48:09;;;;;;;3.95;1.55;;;16.60;78.60;;;;;;4788312;29;20409;-50
2022/10/25 03:50:35;;;;;;;2.60;1.20;;;16.60;78.50;;;;;;4784241;30;20048;-51
2022/10/25 03:53:03;;;;;;;3.08;1.50;;;16.60;78.40;;;;;;4785832;29;20438;-52
2022/10/25 03:55:30;;;;;;;5.22;1.65;;;16.60;78.40;;;;;;4787680;30;20083;-50
2022/10/25 03:57:59;;;;;;;6.38;2.00;;;16.60;78.50;;;;;;4788116;29;20051;-49
2022/10/25 04:00:26;;;;;;;3.95;1.35;;;16.60;78.50;;;;;;4788202;29;20445;-52
2022/10/25 04:02:58;;;;;;;7.32;1.80;;;16.80;78.60;;;;;;4787915;29;20517;-51
2022/10/25 04:05:28;;;;;;;5.55;2.85;;;16.70;78.60;;;;;;4788545;29;20079;-48
2022/10/25 04:07:58;;;;;;;4.25;1.40;;;16.70;78.50;;;;;;4805367;29;20672;-48
2022/10/25 04:10:25;;;;;;;4.82;2.05;;;16.70;78.50;;;;;;4786927;29;20568;-49
2022/10/25 04:12:53;;;;;;;4.18;1.33;;;16.70;78.60;;;;;;4801799;29;20130;-48
2022/10/25 04:15:22;;;;;;;4.82;1.50;;;16.70;78.50;;;;;;4788590;29;20382;-51
2022/10/25 04:17:50;;;;;;;3.47;1.50;;;16.70;78.40;;;;;;4794645;29;20058;-51
2022/10/25 04:20:17;;;;;;;5.63;1.55;;;16.70;78.70;;;;;;4788130;29;20074;-49
2022/10/25 04:22:44;;;;;;;3.90;1.83;;;16.80;78.60;;;;;;4787774;29;20051;-51
2022/10/25 04:25:11;;;;;;;4.22;1.50;;;16.80;78.40;;;;;;4788187;29;20126;-51
2022/10/25 04:27:37;;;;;;;4.45;1.40;;;16.80;78.30;;;;;;4787201;29;20051;-49
2022/10/25 04:30:04;;;;;;;10.35;2.83;;;16.80;78.30;;;;;;4788006;30;20051;-51
2022/10/25 04:32:31;;;;;;;2.63;1.38;;;16.80;78.20;;;;;;4786366;29;20086;-51
2022/10/25 04:34:58;;;;;;;5.18;1.77;;;16.80;78.20;;;;;;4787197;29;20044;-47
2022/10/25 04:37:25;;;;;;;5.45;1.63;;;16.80;78.30;;;;;;4787412;29;20131;-53
2022/10/25 04:39:52;;;;;;;4.22;1.67;;;16.80;78.10;;;;;;4787910;29;20054;-51
2022/10/25 04:42:18;;;;;;;3.00;1.60;;;16.80;78.00;;;;;;4787512;29;20047;-49
2022/10/25 04:44:45;;;;;;;4.68;1.48;;;16.80;77.90;;;;;;4786349;29;20080;-48
2022/10/25 04:47:12;;;;;;;5.32;1.60;;;16.80;77.70;;;;;;4787273;30;20061;-49
2022/10/25 04:49:39;;;;;;;7.85;1.63;;;16.80;77.50;;;;;;4787739;29;20413;-52
2022/10/25 04:52:06;;;;;;;5.78;1.27;;;16.80;77.50;;;;;;4787467;29;20058;-51
2022/10/25 04:54:34;;;;;;;4.47;1.63;;;16.80;77.50;;;;;;4786601;29;20051;-49
2022/10/25 04:57:01;;;;;;;5.63;1.48;;;16.80;77.50;;;;;;4786339;30;20134;-50
2022/10/25 04:59:29;;;;;;;3.42;1.25;;;16.80;77.40;;;;;;4787991;29;20066;-53
2022/10/25 05:01:55;;;;;;;3.50;1.60;;;16.70;77.30;;;;;;4787733;29;20057;-51
2022/10/25 05:04:22;;;;;;;4.93;1.58;;;16.70;77.30;;;;;;4786504;29;20054;-51
2022/10/25 05:06:49;;;;;;;4.82;1.40;;;16.70;77.30;;;;;;4789586;29;20561;-48
2022/10/25 05:09:15;;;;;;;5.35;1.30;;;16.70;77.30;;;;;;4787588;29;20068;-50
2022/10/25 05:11:42;;;;;;;3.67;1.73;;;16.60;77.30;;;;;;4787266;29;20501;-50
2022/10/25 05:14:09;;;;;;;3.30;1.42;;;16.60;77.40;;;;;;4786117;29;20047;-48
2022/10/25 05:16:38;;;;;;;5.53;1.60;;;16.60;77.50;;;;;;4789094;29;20601;-53
2022/10/25 05:19:04;;;;;;;4.13;1.40;;;16.50;77.50;;;;;;4787331;29;20044;-50
2022/10/25 05:21:34;;;;;;;6.20;1.80;;;16.50;77.60;;;;;;4787350;29;20513;-48
2022/10/25 05:24:01;;;;;;;12.38;2.90;;;16.50;77.60;;;;;;4784512;29;20069;-53
2022/10/25 05:26:32;;;;;;;5.07;1.30;;;16.50;77.40;;;;;;4784675;29;20094;-49
2022/10/25 05:28:59;;;;;;;6.60;1.98;;;16.50;77.30;;;;;;4785090;29;20059;-51
2022/10/25 05:31:28;;;;;;;5.07;1.80;;;16.50;77.20;;;;;;4784320;30;20051;-49
2022/10/25 05:33:58;;;;;;;6.25;2.63;;;16.40;77.10;;;;;;4783915;29;20732;-53
2022/10/25 05:36:28;;;;;;;4.70;1.50;;;16.40;77.10;;;;;;4782266;29;20104;-52
2022/10/25 05:38:54;;;;;;;4.15;2.55;;;16.40;77.00;;;;;;4774620;29;20044;-48
2022/10/25 05:41:21;;;;;;;4.55;1.88;;;16.40;77.00;;;;;;4780767;29;20074;-53
2022/10/25 05:43:48;;;;;;;2.80;1.73;;;16.30;77.00;;;;;;4775058;29;20124;-52
2022/10/25 05:46:20;;;;;;;5.05;1.25;;;16.30;77.00;;;;;;4779595;29;20402;-53
2022/10/25 05:48:50;;;;;;;1.63;1.10;;;16.30;77.20;;;;;;4781530;29;20372;-53
2022/10/25 05:51:25;;;;;;;3.03;1.30;;;16.20;77.00;;;;;;4780459;29;20067;-52
2022/10/25 05:54:12;;;;;;;7.03;1.70;;;16.20;77.90;;;;;;4784472;29;20054;-53
2022/10/25 05:56:40;;;;;;;3.78;1.40;;;16.20;77.10;;;;;;4782485;29;20390;-51
2022/10/25 05:59:12;;;;;;;3.28;1.00;;;16.20;77.00;;;;;;4782907;29;20058;-49
2022/10/25 06:01:45;;;;;;;2.65;1.50;;;16.10;77.10;;;;;;4783009;29;20547;-53
2022/10/25 06:04:13;;;;;;;4.45;1.60;;;16.20;77.30;;;;;;4783396;29;20116;-53
2022/10/25 06:06:43;;;;;;;3.83;1.40;;;16.10;77.10;;;;;;4789173;29;20051;-52
2022/10/25 06:09:10;;;;;;;3.13;1.40;;;16.10;77.10;;;;;;4785062;29;20078;-53
2022/10/25 06:11:38;;;;;;;2.97;1.38;;;16.10;77.20;;;;;;4783281;29;20055;-53
2022/10/25 06:14:05;;;;;;;4.40;1.50;;;16.00;77.30;;;;;;4783783;29;20051;-53
2022/10/25 06:16:31;;;;;;;5.95;1.63;;;16.00;77.20;;;;;;4784450;29;20051;-49
2022/10/25 06:18:58;;;;;;;4.03;1.80;;;16.00;77.30;;;;;;4794141;29;20094;-53
2022/10/25 06:21:27;;;;;;;4.22;1.50;;;16.00;77.30;;;;;;4781077;29;20069;-53
2022/10/25 06:23:55;;;;;;;3.08;1.45;;;16.00;77.40;;;;;;4783588;29;20051;-48
2022/10/25 06:26:24;;;;;;;6.38;2.10;;;15.90;77.30;;;;;;4784255;29;20500;-52
2022/10/25 06:28:53;;;;;;;3.65;1.50;;;15.90;77.40;;;;;;4782164;29;20477;-52
2022/10/25 06:31:20;;;;;;;5.50;1.88;;;15.90;77.40;;;;;;4781185;29;20126;-49
2022/10/25 06:33:47;;;;;;;6.50;2.58;;;15.90;77.30;;;;;;4784650;29;20043;-53
2022/10/25 06:36:19;;;;;;;6.95;2.30;;;15.90;77.50;;;;;;4781210;29;20051;-54
2022/10/25 06:38:46;;;;;;;3.35;1.23;;;15.90;77.50;;;;;;4781303;29;20051;-51
2022/10/25 06:41:16;;;;;;;4.35;1.80;;;15.90;77.50;;;;;;4780141;29;20055;-52
2022/10/25 06:43:43;;;;;;;5.40;1.75;;;15.90;77.70;;;;;;4783322;29;20432;-53
2022/10/25 06:46:21;;;;;;;4.50;1.40;;;15.90;77.70;;;;;;4785098;29;20082;-53
2022/10/25 06:48:49;;;;;;;2.72;1.48;;;15.90;77.80;;;;;;4779058;29;20054;-52
2022/10/25 06:51:18;;;;;;;5.00;2.78;;;15.90;78.30;;;;;;4784764;29;20469;-51
2022/10/25 06:53:57;;;;;;;6.82;1.80;;;16.00;77.60;;;;;;4788292;29;20054;-51
2022/10/25 06:56:25;;;;;;;6.25;1.90;;;15.90;77.70;;;;;;4779783;29;20047;-51
2022/10/25 06:58:53;;;;;;;5.00;1.98;;;16.00;77.70;;;;;;4789935;29;20093;-52
2022/10/25 07:01:21;;;;;;;6.03;2.33;;;16.00;77.90;;;;;;4782387;29;20042;-48
2022/10/25 07:03:49;;;;;;;6.38;2.03;;;16.00;78.10;;;;;;4782893;29;20043;-54
2022/10/25 07:06:20;;;;;;;6.78;1.92;;;16.10;78.20;;;;;;4779868;29;20051;-53
2022/10/25 07:08:54;;;;;;;6.72;2.95;;;16.10;78.10;;;;;;4782827;30;20140;-51
2022/10/25 07:11:22;;;;;;;3.45;1.83;;;16.20;78.10;;;;;;4783135;29;20046;-52
2022/10/25 07:13:49;;;;;;;4.03;1.80;;;16.20;77.90;;;;;;4785517;29;20058;-53
2022/10/25 07:16:17;;;;;;;5.07;2.10;;;16.20;77.80;;;;;;4784436;29;20043;-51
2022/10/25 07:18:45;;;;;;;5.15;1.75;;;16.30;77.80;;;;;;4799140;29;20039;-54
2022/10/25 07:21:20;;;;;;;4.80;2.17;;;16.30;77.50;;;;;;4784185;29;20118;-52
2022/10/25 07:23:49;;;;;;;5.90;1.75;;;16.40;77.30;;;;;;4783605;29;20520;-52
2022/10/25 07:26:26;;;;;;;5.30;1.90;;;16.40;77.00;;;;;;4778739;29;20142;-51
2022/10/25 07:28:55;;;;;;;5.15;1.90;;;16.40;76.80;;;;;;4782520;29;20074;-53
2022/10/25 07:31:25;;;;;;;2.22;1.40;;;16.50;76.90;;;;;;4782945;29;20521;-51
2022/10/25 07:33:53;;;;;;;3.22;1.55;;;16.50;76.90;;;;;;4783261;29;20059;-53
2022/10/25 07:36:20;;;;;;;5.43;1.88;;;16.50;76.90;;;;;;4783786;29;20039;-51
2022/10/25 07:38:47;;;;;;;9.73;1.75;;;16.60;76.90;;;;;;4782856;29;20054;-51
2022/10/25 07:41:14;;;;;;;5.47;1.60;;;16.60;77.00;;;;;;4785256;29;20063;-53
2022/10/25 07:43:41;;;;;;;6.07;2.20;;;16.60;76.90;;;;;;4782063;29;20063;-53
2022/10/25 07:46:10;;;;;;;8.50;1.70;;;16.70;76.80;;;;;;4783089;29;20682;-53
2022/10/25 07:48:37;;;;;;;7.93;1.50;;;16.70;76.80;;;;;;4782538;29;20760;-53
2022/10/25 07:51:06;;;;;;;4.88;1.45;;;16.80;76.50;;;;;;4782723;29;20523;-53
2022/10/25 07:53:32;;;;;;;5.00;1.50;;;16.90;76.70;;;;;;4783846;29;20082;-53
2022/10/25 07:55:59;;;;;;;3.13;1.45;;;16.90;76.60;;;;;;4784848;30;20075;-53
2022/10/25 07:58:26;;;;;;;7.78;2.85;;;17.00;76.50;;;;;;4782809;29;20052;-53
2022/10/25 08:01:02;;;;;;;4.18;1.50;;;17.00;76.20;;;;;;4783914;30;20078;-52
2022/10/25 08:03:30;;;;;;;2.63;1.20;;;17.10;75.70;;;;;;4782155;29;20158;-53
2022/10/25 08:05:58;;;;;;;6.40;1.75;;;17.10;75.40;;;;;;4797932;29;20126;-52
2022/10/25 08:08:24;;;;;;;4.43;1.40;;;17.20;75.00;;;;;;4785077;29;20134;-53
2022/10/25 08:10:52;;;;;;;4.00;1.35;;;17.20;74.70;;;;;;4784271;29;20047;-52
2022/10/25 08:13:18;;;;;;;3.47;1.35;;;17.20;74.50;;;;;;4780271;29;20047;-52
2022/10/25 08:15:49;;;;;;;3.22;1.25;;;17.20;74.30;;;;;;4784986;29;20505;-49
2022/10/25 08:18:16;;;;;;;4.22;1.80;;;17.20;74.20;;;;;;4794142;29;20057;-53
2022/10/25 08:20:43;;;;;;;2.03;1.35;;;17.20;74.40;;;;;;4785131;29;20416;-54
2022/10/25 08:23:29;;;;;;;6.43;1.60;;;17.20;74.40;;;;;;4789413;29;20474;-53
2022/10/25 08:25:56;;;;;;;2.95;1.08;;;17.20;74.10;;;;;;4787995;29;20126;-52
2022/10/25 08:28:22;;;;;;;5.50;1.45;;;17.20;74.20;;;;;;4789404;29;20042;-51
2022/10/25 08:30:49;;;;;;;3.08;0.95;;;17.10;74.20;;;;;;4787869;29;20413;-53
2022/10/25 08:33:16;;;;;;;6.43;1.73;;;17.10;74.10;;;;;;4785414;29;20097;-53
2022/10/25 08:35:42;;;;;;;5.88;1.48;;;17.20;74.00;;;;;;4787857;29;20428;-53
2022/10/25 08:38:09;;;;;;;2.22;1.48;;;17.20;73.90;;;;;;4784379;29;20051;-54
2022/10/25 08:40:53;;;;;;;5.40;1.50;;;17.20;73.80;;;;;;4786565;29;20424;-54
2022/10/25 08:43:43;;;;;;;3.58;1.35;;;17.20;73.60;;;;;;4784740;29;20138;-54
2022/10/25 08:46:20;;;;;;;6.25;1.85;;;17.20;73.50;;;;;;4786799;29;20432;-52
2022/10/25 08:49:10;;;;;;;3.47;1.42;;;17.30;73.70;;;;;;4779453;30;20532;-54
2022/10/25 08:51:40;;;;;;;6.75;1.30;;;17.30;73.40;;;;;;4786011;29;20055;-53
2022/10/25 08:54:26;;;;;;;3.65;1.20;;;17.30;73.30;;;;;;4786923;29;20050;-52
2022/10/25 08:57:23;;;;;;;4.38;1.30;;;17.30;72.80;;;;;;4784757;29;20131;-52
2022/10/25 08:59:59;;;;;;;3.22;1.30;;;17.40;72.80;;;;;;4785420;29;20513;-53
2022/10/25 09:02:47;;;;;;;4.43;1.50;;;17.40;72.30;;;;;;4784936;29;20058;-52
2022/10/25 09:05:36;;;;;;;2.13;1.42;;;17.40;72.40;;;;;;4786239;29;20065;-53
2022/10/25 09:08:23;;;;;;;6.15;2.15;;;17.40;72.50;;;;;;4786027;29;20601;-52
2022/10/25 09:11:14;;;;;;;3.63;1.42;;;17.40;72.10;;;;;;4785780;30;20043;-53
2022/10/25 09:14:04;;;;;;;1.95;1.10;;;17.40;71.90;;;;;;4785365;29;20054;-52
2022/10/25 09:16:41;;;;;;;6.47;1.45;;;17.50;71.90;;;;;;4785070;29;20047;-53
2022/10/25 09:19:37;;;;;;;9.98;2.38;;;17.50;72.10;;;;;;4780538;29;20054;-52
2022/10/25 09:22:26;;;;;;;4.82;1.90;;;17.60;71.70;;;;;;4784605;29;20096;-53
2022/10/25 09:25:14;;;;;;;4.30;1.73;;;17.60;71.50;;;;;;4782070;30;20138;-52
2022/10/25 09:28:04;;;;;;;7.47;1.80;;;17.60;71.80;;;;;;4784152;29;20047;-54
2022/10/25 09:30:38;;;;;;;2.58;1.52;;;17.60;71.50;;;;;;4781882;30;20047;-54
2022/10/25 09:33:14;;;;;;;3.28;1.50;;;17.70;71.70;;;;;;4783235;29;20086;-53
2022/10/25 09:35:47;;;;;;;4.07;1.25;;;17.60;71.50;;;;;;4784934;29;20047;-53
2022/10/25 09:38:48;;;;;;;2.83;1.50;;;17.70;71.30;;;;;;4782164;29;20409;-54
2022/10/25 09:41:34;;;;;;;3.30;1.27;;;17.80;70.70;;;;;;4783950;29;20585;-53
2022/10/25 09:44:11;;;;;;;3.80;1.60;;;17.80;70.80;;;;;;4783289;29;20090;-53
2022/10/25 09:46:50;;;;;;;5.88;1.83;;;17.90;70.10;;;;;;4784523;30;20069;-53
2022/10/25 09:49:28;;;;;;;3.00;1.40;;;17.90;69.90;;;;;;4784352;29;20108;-54
2022/10/25 09:52:20;;;;;;;4.18;1.52;;;17.90;70.20;;;;;;4784936;29;20055;-54
2022/10/25 09:54:49;;;;;;;5.03;1.30;;;17.90;69.70;;;;;;4802376;24;20043;-49
2022/10/25 09:57:16;;;;;;;1.55;1.33;;;18.00;70.10;;;;;;4802168;29;20038;-47
2022/10/25 09:59:47;;;;;;;4.30;1.67;;;18.00;70.20;;;;;;4803842;29;20047;-48
2022/10/25 10:02:19;;;;;;;3.13;1.50;;;18.10;70.00;;;;;;4800866;29;20069;-49
2022/10/25 10:04:46;;;;;;;3.88;1.80;;;18.10;69.70;;;;;;4799272;29;20046;-50
2022/10/25 10:07:28;;;;;;;2.63;1.40;;;18.10;69.60;;;;;;4800331;29;20504;-48
2022/10/25 10:09:59;;;;;;;1.92;1.42;;;18.10;68.90;;;;;;4798562;29;20055;-51
2022/10/25 10:12:49;;;;;;;3.25;1.80;;;18.20;69.40;;;;;;4796339;29;20053;-48
2022/10/25 10:15:24;;;;;;;2.42;2.10;;;18.20;68.90;;;;;;4796427;29;20055;-51
2022/10/25 10:18:21;;;;;;;4.45;2.28;;;18.20;69.50;;;;;;4800590;29;20051;-52
2022/10/25 10:20:59;;;;;;;2.97;1.92;;;18.20;68.70;;;;;;4799466;29;20421;-48
2022/10/25 10:23:28;;;;;;;3.90;1.90;;;18.20;68.80;;;;;;4799466;29;20517;-49
2022/10/25 10:25:58;;;;;;;6.13;2.25;;;18.20;69.20;;;;;;4803462;29;20055;-51
2022/10/25 10:28:25;;;;;;;3.20;2.35;;;18.20;69.50;;;;;;4803869;29;20055;-50
2022/10/25 10:30:57;;;;;;;4.10;2.20;;;18.20;69.50;;;;;;4800178;29;20047;-53
2022/10/25 10:33:31;;;;;;;3.28;2.13;;;18.30;69.60;;;;;;4797149;29;20043;-51
2022/10/25 10:36:19;;;;;;;4.03;1.98;;;18.30;69.30;;;;;;4800465;29;20130;-49
2022/10/25 10:38:46;;;;;;;4.30;2.10;;;18.40;69.30;;;;;;4801219;29;20038;-53
2022/10/25 10:41:20;;;;;;;2.35;1.90;;;18.50;69.60;;;;;;4803493;29;20428;-53
2022/10/25 10:43:46;;;;;;;2.83;1.85;;;18.60;69.00;;;;;;4801380;29;20046;-53
2022/10/25 10:46:15;;;;;;;4.07;2.83;;;18.70;68.90;;;;;;4800610;29;20047;-53
2022/10/25 10:48:51;;;;;;;4.28;1.58;;;18.80;69.00;;;;;;4799710;29;20058;-52
2022/10/25 10:51:20;;;;;;;3.13;1.42;;;18.80;69.40;;;;;;4797841;29;20497;-52
2022/10/25 10:54:23;;;;;;;3.00;1.40;;;19.00;68.20;;;;;;4799224;29;20054;-50
2022/10/25 10:57:01;;;;;;;5.60;1.48;;;19.10;67.10;;;;;;4800534;29;20043;-53
2022/10/25 10:59:39;;;;;;;3.13;1.40;;;19.20;67.40;;;;;;4800883;29;20675;-49
2022/10/25 11:02:20;;;;;;;4.35;1.58;;;19.20;67.20;;;;;;4799681;29;20047;-51
2022/10/25 11:04:49;;;;;;;5.18;1.00;;;19.30;66.70;;;;;;4801489;29;20074;-50
2022/10/25 11:07:29;;;;;;;4.95;1.30;;;19.30;67.30;;;;;;4799095;29;20058;-53
2022/10/25 11:10:13;;;;;;;3.55;1.25;;;19.40;66.10;;;;;;4798903;29;20042;-51
2022/10/25 11:12:43;;;;;;;1.67;1.00;;;19.50;65.80;;;;;;4794424;29;20055;-52
2022/10/25 11:15:14;;;;;;;4.80;1.20;;;19.50;66.10;;;;;;4800378;29;20090;-50
2022/10/25 11:18:03;;;;;;;2.22;1.08;;;19.60;66.20;;;;;;4801471;29;20132;-50
2022/10/25 11:20:45;;;;;;;2.03;1.35;;;19.60;65.70;;;;;;4801099;29;20061;-48
2022/10/25 11:23:35;;;;;;;3.25;1.30;;;19.60;65.40;;;;;;4795267;29;20062;-49
2022/10/25 11:26:13;;;;;;;3.80;1.25;;;19.60;65.40;;;;;;4799307;29;20057;-52
2022/10/25 11:29:02;;;;;;;4.82;1.23;;;19.60;65.20;;;;;;4795112;29;20059;-51
2022/10/25 11:31:56;;;;;;;3.75;0.93;;;19.50;65.10;;;;;;4805074;29;20523;-50
2022/10/25 11:34:36;;;;;;;4.38;1.50;;;19.50;65.10;;;;;;4800078;29;20054;-48
2022/10/25 11:37:09;;;;;;;1.85;0.80;;;19.50;65.20;;;;;;4800630;29;20057;-52
2022/10/25 11:39:55;;;;;;;3.53;1.05;;;19.50;65.60;;;;;;4801436;29;20050;-50
2022/10/25 11:42:58;;;;;;;4.05;1.67;;;19.50;65.20;;;;;;4795149;29;20058;-52
2022/10/25 11:45:39;;;;;;;5.00;1.50;;;19.50;64.80;;;;;;4794799;29;20078;-47
2022/10/25 11:48:49;;;;;;;3.03;1.30;;;19.50;65.20;;;;;;4794213;29;20527;-50
2022/10/25 11:51:40;;;;;;;4.43;1.38;;;19.50;65.10;;;;;;4780904;29;20572;-52
2022/10/25 11:54:13;;;;;;;4.13;0.90;;;19.50;65.10;;;;;;4796432;29;20051;-52
2022/10/25 11:56:45;;;;;;;3.65;1.10;;;19.60;65.40;;;;;;4797887;29;20408;-52
2022/10/25 11:59:37;;;;;;;2.53;1.05;;;19.50;64.70;;;;;;4803259;29;20078;-49
2022/10/25 12:02:34;;;;;;;2.90;1.38;;;19.50;64.30;;;;;;4800793;29;20082;-52
2022/10/25 12:05:08;;;;;;;2.15;0.95;;;19.50;64.20;;;;;;4808934;29;20063;-52
2022/10/25 12:07:40;;;;;;;3.80;1.13;;;19.50;64.10;;;;;;4797918;29;20065;-52
2022/10/25 12:10:06;;;;;;;3.25;1.02;;;19.40;64.50;;;;;;4807169;29;20053;-53
2022/10/25 12:12:52;;;;;;;9.20;1.63;;;19.40;64.90;;;;;;4803574;29;20051;-52
2022/10/25 12:15:41;;;;;;;1.60;1.25;;;19.40;64.70;;;;;;4803963;29;20124;-51
2022/10/25 12:18:16;;;;;;;2.75;1.23;;;19.40;64.70;;;;;;4806324;29;20703;-51
2022/10/25 12:20:45;;;;;;;3.25;1.20;;;19.40;64.80;;;;;;4804557;29;20078;-52
2022/10/25 12:23:18;;;;;;;3.78;0.90;;;19.30;65.20;;;;;;4807550;29;20134;-52
2022/10/25 12:25:50;;;;;;;2.67;0.93;;;19.30;65.40;;;;;;4803493;29;20054;-53
2022/10/25 12:28:24;;;;;;;2.78;1.20;;;19.40;65.40;;;;;;4804144;29;20047;-49
2022/10/25 12:30:57;;;;;;;2.20;0.90;;;19.40;65.60;;;;;;4805178;29;20051;-49
2022/10/25 12:33:36;;;;;;;3.70;0.80;;;19.50;65.90;;;;;;4804509;29;20459;-52
2022/10/25 12:36:07;;;;;;;3.33;0.85;;;19.70;65.80;;;;;;4800148;29;20068;-50
2022/10/25 12:38:36;;;;;;;3.95;0.75;;;19.70;65.30;;;;;;4804305;29;20057;-51
2022/10/25 12:41:14;;;;;;;3.85;1.17;;;19.90;65.10;;;;;;4805218;29;20428;-48
2022/10/25 12:44:13;;;;;;;4.15;0.88;;;20.00;64.60;;;;;;4807206;29;20269;-53
2022/10/25 12:46:46;;;;;;;2.83;0.70;;;20.10;63.40;;;;;;4804192;29;20138;-49
2022/10/25 12:49:47;;;;;;;1.83;0.77;;;20.20;63.00;;;;;;4804740;29;20129;-50
2022/10/25 12:52:38;;;;;;;4.78;0.75;;;20.30;62.20;;;;;;4804257;29;20412;-50
2022/10/25 12:55:42;;;;;;;1.27;0.95;;;20.30;62.00;;;;;;4798365;29;20089;-53
2022/10/25 12:58:18;;;;;;;2.10;0.68;;;20.40;62.50;;;;;;4800787;29;20769;-50
2022/10/25 13:01:03;;;;;;;1.98;0.60;;;20.40;62.50;;;;;;4810769;29;20057;-53
2022/10/25 13:03:46;;;;;;;0.82;0.55;;;20.50;62.10;;;;;;4801163;29;20050;-52
2022/10/25 13:06:25;;;;;;;1.98;0.50;;;20.60;61.70;;;;;;4801803;29;20096;-52
2022/10/25 13:08:58;;;;;;;2.15;0.60;;;20.70;61.60;;;;;;4809781;29;20074;-49
2022/10/25 13:11:35;;;;;;;1.40;0.75;;;20.70;61.40;;;;;;4800710;29;20057;-49
2022/10/25 13:14:02;;;;;;;2.95;0.70;;;20.80;60.60;;;;;;4800316;29;20108;-48
2022/10/25 13:16:31;;;;;;;1.77;1.33;;;20.80;61.00;;;;;;4803947;29;20061;-53
2022/10/25 13:19:25;;;;;;;2.60;0.80;;;20.90;60.80;;;;;;4802404;29;20130;-50